Time;durP1;ratioP1;P1;durP2;ratioP2;P2;SDS_P1;SDS_P2;PMS_P1;PMS_P2;Temp;Humidity;BMP_temperature;BMP_pressure;BME280_temperature;BME280_humidity;BME280_pressure;Samples;Min_cycle;Max_cycle;Signal;HPM_P1;HPM_P2
2022/11/08 00:04:16;;;;;;;4.82;1.92;;;;;;;;;;10572311;27;20040;-76
2022/11/08 00:14:50;;;;;;;4.95;1.80;;;;;;;;;;10574833;27;20397;-77
2022/11/08 00:19:52;;;;;;;2.28;1.13;;;;;;;;;;10580114;27;20152;-76
2022/11/08 00:24:55;;;;;;;3.72;1.80;;;;;;;;;;10576518;27;20050;-77
2022/11/08 00:29:59;;;;;;;1.92;1.48;;;;;;;;;;10552958;27;20044;-77
2022/11/08 00:35:08;;;;;;;2.33;1.15;;;;;;;;;;10570651;27;20081;-77
2022/11/08 00:40:11;;;;;;;2.85;1.63;;;;;;;;;;10570717;27;20039;-77
2022/11/08 00:45:25;;;;;;;3.10;1.03;;;;;;;;;;10571175;27;20237;-79
2022/11/08 00:50:28;;;;;;;1.67;0.90;;;;;;;;;;10569527;27;20500;-77
2022/11/08 00:55:31;;;;;;;3.03;1.13;;;;;;;;;;10572626;27;20093;-76
2022/11/08 01:00:35;;;;;;;2.45;1.55;;;;;;;;;;10558744;27;20042;-76
2022/11/08 01:05:38;;;;;;;1.60;1.15;;;;;;;;;;10569088;27;20039;-76
2022/11/08 01:10:40;;;;;;;2.80;1.20;;;;;;;;;;10569421;27;20046;-75
2022/11/08 01:15:45;;;;;;;2.65;0.80;;;;;;;;;;10562495;27;20476;-77
2022/11/08 01:20:48;;;;;;;0.50;0.50;;;;;;;;;;10567572;27;20040;-75
2022/11/08 01:25:51;;;;;;;2.15;1.25;;;;;;;;;;10569474;27;20053;-76
2022/11/08 01:30:55;;;;;;;2.35;1.10;;;;;;;;;;10570530;27;20599;-76
2022/11/08 01:35:57;;;;;;;2.72;1.25;;;;;;;;;;10569290;27;20404;-76
2022/11/08 01:41:01;;;;;;;2.45;1.27;;;;;;;;;;10569499;27;20384;-77
2022/11/08 01:46:24;;;;;;;3.25;1.38;;;;;;;;;;10567428;27;20056;-76
2022/11/08 01:51:31;;;;;;;2.53;1.40;;;;;;;;;;10533419;28;20054;-76
2022/11/08 01:56:34;;;;;;;3.13;1.25;;;;;;;;;;10576762;28;20429;-76
2022/11/08 02:01:37;;;;;;;3.73;1.40;;;;;;;;;;10567720;28;20035;-76
2022/11/08 02:06:43;;;;;;;2.67;1.20;;;;;;;;;;10578382;27;20530;-77
2022/11/08 02:11:46;;;;;;;2.60;1.38;;;;;;;;;;10564933;27;20048;-77
2022/11/08 02:16:49;;;;;;;2.72;1.40;;;;;;;;;;10576966;27;20110;-77
2022/11/08 02:21:56;;;;;;;2.42;1.15;;;;;;;;;;10577352;27;20051;-78
2022/11/08 02:27:00;;;;;;;0.65;0.40;;;;;;;;;;10578746;27;20477;-76
2022/11/08 02:32:03;;;;;;;;;;;;;;;;;;10578551;27;20051;-77
2022/11/08 02:37:08;;;;;;;1.70;1.13;;;;;;;;;;10577924;27;20312;-77
2022/11/08 02:42:14;;;;;;;1.00;0.70;;;;;;;;;;10578014;27;20425;-78
2022/11/08 02:47:17;;;;;;;1.95;1.17;;;;;;;;;;10577609;27;20035;-76
2022/11/08 02:52:19;;;;;;;1.15;1.05;;;;;;;;;;10587598;27;20111;-77
2022/11/08 02:57:23;;;;;;;1.23;0.82;;;;;;;;;;10579129;27;20043;-77
2022/11/08 03:02:26;;;;;;;1.42;0.98;;;;;;;;;;10576930;27;20050;-77
2022/11/08 03:07:30;;;;;;;1.80;1.07;;;;;;;;;;10574712;27;20142;-76
2022/11/08 03:12:34;;;;;;;0.00;0.00;;;;;;;;;;10578361;27;20043;-76
2022/11/08 03:17:37;;;;;;;3.40;0.70;;;;;;;;;;10580235;27;20156;-75
2022/11/08 03:22:39;;;;;;;3.58;1.45;;;;;;;;;;10568492;27;20070;-76
2022/11/08 03:27:43;;;;;;;1.88;1.20;;;;;;;;;;10578772;27;20176;-76
2022/11/08 03:32:47;;;;;;;1.92;1.10;;;;;;;;;;10573981;27;20625;-76
2022/11/08 03:37:50;;;;;;;2.83;1.00;;;;;;;;;;10576908;27;20519;-76
2022/11/08 03:42:55;;;;;;;2.38;1.70;;;;;;;;;;10574565;27;20036;-76
2022/11/08 03:47:57;;;;;;;4.20;1.60;;;;;;;;;;10570974;27;20031;-76
2022/11/08 03:53:00;;;;;;;2.67;1.30;;;;;;;;;;10574742;27;20143;-76
2022/11/08 03:58:04;;;;;;;2.90;1.48;;;;;;;;;;10574290;27;20047;-76
2022/11/08 04:03:09;;;;;;;1.95;1.20;;;;;;;;;;10571844;27;20121;-76
2022/11/08 04:08:12;;;;;;;1.73;1.25;;;;;;;;;;10572871;27;20043;-77
2022/11/08 04:23:57;;;;;;;2.25;1.30;;;;;;;;;;10567522;27;20524;-78
2022/11/08 04:29:02;;;;;;;2.50;1.10;;;;;;;;;;10571256;27;20038;-75
2022/11/08 04:34:06;;;;;;;2.03;1.45;;;;;;;;;;10572663;27;20047;-76
2022/11/08 04:39:08;;;;;;;3.10;1.20;;;;;;;;;;10570575;27;20473;-77
2022/11/08 04:44:14;;;;;;;2.28;1.20;;;;;;;;;;10562909;27;20085;-77
2022/11/08 04:49:20;;;;;;;4.82;1.30;;;;;;;;;;10556356;27;21026;-76
2022/11/08 04:54:26;;;;;;;3.60;1.50;;;;;;;;;;10559724;27;20047;-77
2022/11/08 04:59:30;;;;;;;2.97;1.40;;;;;;;;;;10555420;27;20044;-78
2022/11/08 05:04:33;;;;;;;1.52;0.88;;;;;;;;;;10564788;27;20046;-76
2022/11/08 05:09:35;;;;;;;2.08;1.23;;;;;;;;;;10565737;27;20040;-77
2022/11/08 05:14:39;;;;;;;2.08;0.82;;;;;;;;;;10564492;27;20523;-78
2022/11/08 05:25:02;;;;;;;2.20;0.77;;;;;;;;;;10564562;27;19934;-77
2022/11/08 05:30:08;;;;;;;2.33;1.20;;;;;;;;;;10552363;27;20122;-76
2022/11/08 05:35:11;;;;;;;3.10;1.17;;;;;;;;;;10567220;27;20047;-77
2022/11/08 05:40:15;;;;;;;2.80;1.30;;;;;;;;;;10566139;27;20115;-78
2022/11/08 05:45:21;;;;;;;2.28;0.98;;;;;;;;;;10565071;27;20038;-77
2022/11/08 05:50:24;;;;;;;2.05;1.15;;;;;;;;;;10569867;27;20084;-78
2022/11/08 05:55:27;;;;;;;3.33;1.17;;;;;;;;;;10572963;28;20040;-78
2022/11/08 06:00:31;;;;;;;1.55;1.30;;;;;;;;;;10564207;28;20128;-77
2022/11/08 06:05:34;;;;;;;3.05;1.30;;;;;;;;;;10566967;28;20051;-77
2022/11/08 06:10:37;;;;;;;2.92;1.27;;;;;;;;;;10555886;28;20047;-78
2022/11/08 06:15:41;;;;;;;3.65;1.92;;;;;;;;;;10566217;28;20085;-78
2022/11/08 06:20:43;;;;;;;4.05;1.15;;;;;;;;;;10565322;28;20101;-78
2022/11/08 06:25:47;;;;;;;3.17;1.60;;;;;;;;;;10544902;28;20054;-76
2022/11/08 06:30:51;;;;;;;4.70;1.15;;;;;;;;;;10551989;28;20769;-77
2022/11/08 06:35:54;;;;;;;2.63;1.30;;;;;;;;;;10565955;28;20035;-78
2022/11/08 06:40:58;;;;;;;2.53;1.40;;;;;;;;;;10556772;28;20043;-78
2022/11/08 06:46:02;;;;;;;2.60;1.50;;;;;;;;;;10559140;28;20031;-77
2022/11/08 06:51:14;;;;;;;2.65;1.85;;;;;;;;;;10566511;27;20044;-77
2022/11/08 06:56:18;;;;;;;3.78;1.77;;;;;;;;;;10572976;27;20492;-77
2022/11/08 07:01:22;;;;;;;4.78;2.00;;;;;;;;;;10566942;27;20451;-77
2022/11/08 07:06:25;;;;;;;5.60;2.10;;;;;;;;;;10564782;27;20623;-78
2022/11/08 07:11:28;;;;;;;5.50;2.80;;;;;;;;;;10565711;27;20047;-78
2022/11/08 07:16:32;;;;;;;4.70;2.00;;;;;;;;;;10565920;27;20039;-79
2022/11/08 07:21:36;;;;;;;5.35;2.10;;;;;;;;;;10569653;27;20039;-79
2022/11/08 07:26:39;;;;;;;4.53;2.13;;;;;;;;;;10568524;27;20946;-79
2022/11/08 07:31:43;;;;;;;4.72;2.17;;;;;;;;;;10563632;27;20035;-79
2022/11/08 07:36:47;;;;;;;4.72;2.00;;;;;;;;;;10564936;27;20127;-78
2022/11/08 07:41:50;;;;;;;5.63;2.28;;;;;;;;;;10565958;27;20249;-78
2022/11/08 07:46:55;;;;;;;3.78;1.77;;;;;;;;;;10565704;27;20046;-80
2022/11/08 07:51:58;;;;;;;4.10;1.70;;;;;;;;;;10570958;27;20141;-79
2022/11/08 07:57:01;;;;;;;3.15;1.95;;;;;;;;;;10557857;27;20546;-78
2022/11/08 08:02:06;;;;;;;4.07;2.00;;;;;;;;;;10556171;27;20621;-78
2022/11/08 08:07:12;;;;;;;5.13;2.30;;;;;;;;;;10557858;27;20518;-79
2022/11/08 08:12:14;;;;;;;;;;;;;;;;;;10554976;27;20189;-79
2022/11/08 08:17:27;;;;;;;7.22;2.55;;;;;;;;;;10554427;27;20444;-77
2022/11/08 08:22:30;;;;;;;40.45;18.35;;;;;;;;;;10541261;27;20036;-78
2022/11/08 08:27:33;;;;;;;7.70;6.75;;;;;;;;;;10555554;27;20403;-78
2022/11/08 08:32:37;;;;;;;4.28;2.72;;;;;;;;;;10553208;27;20048;-79
2022/11/08 08:37:40;;;;;;;4.30;2.50;;;;;;;;;;10556001;27;20040;-78
2022/11/08 08:42:43;;;;;;;5.10;2.97;;;;;;;;;;10551765;27;20044;-79
2022/11/08 08:47:52;;;;;;;4.18;2.67;;;;;;;;;;10534595;27;20150;-78
2022/11/08 08:52:57;;;;;;;5.07;2.58;;;;;;;;;;10559555;27;20529;-78
2022/11/08 08:58:01;;;;;;;4.95;3.08;;;;;;;;;;10554552;27;20050;-79
2022/11/08 09:03:05;;;;;;;5.70;3.00;;;;;;;;;;10561192;27;20049;-78
2022/11/08 09:08:07;;;;;;;6.60;3.08;;;;;;;;;;10526074;28;20074;-81
2022/11/08 09:13:10;;;;;;;4.82;2.40;;;;;;;;;;10507978;28;20054;-78
2022/11/08 09:18:20;;;;;;;6.03;2.38;;;;;;;;;;10509620;28;20110;-78
2022/11/08 09:23:24;;;;;;;3.35;1.67;;;;;;;;;;10514459;28;20543;-78
2022/11/08 09:28:26;;;;;;;4.70;2.42;;;;;;;;;;10512052;28;20106;-79
2022/11/08 09:33:35;;;;;;;2.33;1.20;;;;;;;;;;10510882;28;20608;-78
2022/11/08 09:38:37;;;;;;;3.60;1.80;;;;;;;;;;10510042;28;20050;-78
2022/11/08 09:43:51;;;;;;;2.28;1.50;;;;;;;;;;10512725;28;20055;-77
2022/11/08 09:48:55;;;;;;;2.95;1.20;;;;;;;;;;10513086;28;20495;-78
2022/11/08 09:53:59;;;;;;;2.40;1.27;;;;;;;;;;10507941;28;20039;-77
2022/11/08 09:59:04;;;;;;;2.97;1.73;;;;;;;;;;10513664;28;20043;-77
2022/11/08 10:04:12;;;;;;;3.30;2.00;;;;;;;;;;10520865;28;20075;-77
2022/11/08 10:09:24;;;;;;;4.25;2.10;;;;;;;;;;10550665;28;20391;-79
2022/11/08 10:14:36;;;;;;;3.08;1.80;;;;;;;;;;10549894;28;20040;-79
2022/11/08 10:19:58;;;;;;;3.22;2.28;;;;;;;;;;10549051;28;20039;-78
2022/11/08 10:25:17;;;;;;;3.10;1.60;;;;;;;;;;10553118;27;20130;-78
2022/11/08 10:30:23;;;;;;;4.40;1.48;;;;;;;;;;10558215;27;20058;-78
2022/11/08 10:35:31;;;;;;;2.75;1.20;;;;;;;;;;10564762;27;20047;-78
2022/11/08 10:40:37;;;;;;;4.65;1.45;;;;;;;;;;10570705;27;20035;-77
2022/11/08 10:45:42;;;;;;;2.80;1.60;;;;;;;;;;10570895;27;20500;-77
2022/11/08 10:50:49;;;;;;;3.53;1.77;;;;;;;;;;10574214;27;20376;-77
2022/11/08 10:55:52;;;;;;;6.05;1.85;;;;;;;;;;10576044;27;20046;-77
2022/11/08 11:00:57;;;;;;;;;;;;;;;;;;10568590;27;20039;-81
2022/11/08 11:06:01;;;;;;;3.85;1.67;;;;;;;;;;10572453;27;20356;-78
2022/11/08 11:11:14;;;;;;;3.00;1.55;;;;;;;;;;10574956;27;20032;-81
2022/11/08 11:16:17;;;;;;;5.72;1.80;;;;;;;;;;10574113;27;20043;-79
2022/11/08 11:21:22;;;;;;;7.63;2.70;;;;;;;;;;10575990;27;20032;-77
2022/11/08 11:26:29;;;;;;;3.10;1.80;;;;;;;;;;10573877;27;20457;-79
2022/11/08 11:31:32;;;;;;;4.07;2.10;;;;;;;;;;10574403;27;20054;-79
2022/11/08 11:36:36;;;;;;;4.55;2.30;;;;;;;;;;10565281;27;20710;-78
2022/11/08 11:41:45;;;;;;;3.30;2.42;;;;;;;;;;10586735;27;20075;-78
2022/11/08 11:46:50;;;;;;;3.35;2.63;;;;;;;;;;10591181;27;20075;-80
2022/11/08 11:51:55;;;;;;;3.13;2.30;;;;;;;;;;10585501;27;20050;-79
2022/11/08 11:57:01;;;;;;;4.30;2.25;;;;;;;;;;10601069;27;20459;-79
2022/11/08 12:02:32;;;;;;;12.18;3.03;;;;;;;;;;10606385;27;20519;-78
2022/11/08 12:07:40;;;;;;;6.07;2.30;;;;;;;;;;10623429;27;20487;-78
2022/11/08 12:12:49;;;;;;;4.70;2.20;;;;;;;;;;10632498;27;20038;-77
2022/11/08 12:18:12;;;;;;;3.97;1.73;;;;;;;;;;10626390;27;20086;-78
2022/11/08 12:23:41;;;;;;;5.07;2.30;;;;;;;;;;10617528;27;20068;-78
2022/11/08 12:28:44;;;;;;;;;;;;;;;;;;10621264;27;20027;-78
2022/11/08 12:33:52;;;;;;;3.60;2.03;;;;;;;;;;10598354;27;19949;-78
2022/11/08 12:39:04;;;;;;;4.32;2.20;;;;;;;;;;10624185;27;20054;-77
2022/11/08 12:44:17;;;;;;;6.32;2.30;;;;;;;;;;10621472;27;20020;-77
2022/11/08 12:49:30;;;;;;;3.05;2.10;;;;;;;;;;10618113;27;20035;-78
2022/11/08 12:54:35;;;;;;;6.63;2.08;;;;;;;;;;10626564;27;20062;-81
2022/11/08 12:59:41;;;;;;;3.42;2.35;;;;;;;;;;10619057;27;20045;-77
2022/11/08 13:04:52;;;;;;;5.82;2.08;;;;;;;;;;10621796;27;20043;-78
2022/11/08 13:10:00;;;;;;;5.65;2.42;;;;;;;;;;10606270;27;20131;-78
2022/11/08 13:15:04;;;;;;;3.30;2.25;;;;;;;;;;10590883;27;20588;-79
2022/11/08 13:20:27;;;;;;;6.38;2.40;;;;;;;;;;10572126;27;20039;-77
2022/11/08 13:25:40;;;;;;;5.80;2.65;;;;;;;;;;10577602;27;20044;-78
2022/11/08 13:30:43;;;;;;;4.30;2.42;;;;;;;;;;10592362;27;20081;-77
2022/11/08 13:35:50;;;;;;;8.27;3.45;;;;;;;;;;10615290;27;20035;-77
2022/11/08 13:41:07;;;;;;;5.43;2.47;;;;;;;;;;10615670;27;20061;-77
2022/11/08 13:46:29;;;;;;;5.28;3.00;;;;;;;;;;10606324;27;20490;-78
2022/11/08 13:51:32;;;;;;;5.13;2.60;;;;;;;;;;10593544;27;20046;-77
2022/11/08 13:56:47;;;;;;;6.75;3.20;;;;;;;;;;10605516;28;20107;-77
2022/11/08 14:01:58;;;;;;;7.78;2.70;;;;;;;;;;10600354;27;20055;-77
2022/11/08 14:07:08;;;;;;;6.35;2.67;;;;;;;;;;10606487;27;20047;-77
2022/11/08 14:12:14;;;;;;;5.65;2.15;;;;;;;;;;10614152;27;20093;-77
2022/11/08 14:17:29;;;;;;;7.18;2.25;;;;;;;;;;10626442;27;20039;-78
2022/11/08 14:22:32;;;;;;;5.68;2.28;;;;;;;;;;10614519;27;20066;-78
2022/11/08 14:27:39;;;;;;;7.65;2.15;;;;;;;;;;10625484;27;20044;-77
2022/11/08 14:32:43;;;;;;;5.32;2.15;;;;;;;;;;10593004;27;20054;-78
2022/11/08 14:37:46;;;;;;;6.93;2.50;;;;;;;;;;10577907;27;20063;-77
2022/11/08 14:42:50;;;;;;;3.83;2.05;;;;;;;;;;10575380;27;20304;-77
2022/11/08 14:47:54;;;;;;;4.55;2.10;;;;;;;;;;10574272;27;21830;-77
2022/11/08 14:53:18;;;;;;;5.05;2.10;;;;;;;;;;10558544;27;20069;-77
2022/11/08 14:58:26;;;;;;;6.90;2.55;;;;;;;;;;10570921;27;20473;-77
2022/11/08 15:03:31;;;;;;;7.03;2.20;;;;;;;;;;10573126;27;20048;-77
2022/11/08 15:08:45;;;;;;;7.55;2.00;;;;;;;;;;10565413;27;20516;-78
2022/11/08 15:13:52;;;;;;;6.07;2.00;;;;;;;;;;10556368;27;20051;-78
2022/11/08 15:18:54;;;;;;;8.13;2.88;;;;;;;;;;10572779;27;20122;-77
2022/11/08 15:24:11;;;;;;;7.07;2.20;;;;;;;;;;10568586;27;20058;-77
2022/11/08 15:29:18;;;;;;;7.85;2.38;;;;;;;;;;10570908;27;20039;-78
2022/11/08 15:34:21;;;;;;;9.30;3.17;;;;;;;;;;10569060;27;20066;-79
2022/11/08 15:39:25;;;;;;;4.80;2.17;;;;;;;;;;10571671;27;20632;-78
2022/11/08 15:44:29;;;;;;;5.85;2.40;;;;;;;;;;10571416;27;20032;-78
2022/11/08 15:49:32;;;;;;;10.10;3.05;;;;;;;;;;10575052;27;20039;-79
2022/11/08 15:54:35;;;;;;;6.57;2.97;;;;;;;;;;10571412;27;20047;-79
2022/11/08 15:59:39;;;;;;;8.73;2.17;;;;;;;;;;10577457;27;20557;-78
2022/11/08 16:04:42;;;;;;;9.90;3.45;;;;;;;;;;10565764;27;20051;-78
2022/11/08 16:09:45;;;;;;;10.63;3.53;;;;;;;;;;10548994;27;20050;-78
2022/11/08 16:14:49;;;;;;;19.33;4.43;;;;;;;;;;10564775;27;20067;-77
2022/11/08 16:19:52;;;;;;;10.70;3.38;;;;;;;;;;10566405;27;20483;-78
2022/11/08 16:24:58;;;;;;;6.72;3.15;;;;;;;;;;10562795;27;20047;-78
2022/11/08 16:30:05;;;;;;;15.30;4.72;;;;;;;;;;10566475;27;20062;-78
2022/11/08 16:35:09;;;;;;;16.25;5.40;;;;;;;;;;10566973;27;20419;-78
2022/11/08 16:40:16;;;;;;;10.95;4.80;;;;;;;;;;10584794;27;20409;-77
2022/11/08 16:45:21;;;;;;;14.52;4.45;;;;;;;;;;10611792;27;20046;-78
2022/11/08 16:50:46;;;;;;;14.20;4.07;;;;;;;;;;10591512;27;20039;-78
2022/11/08 16:55:49;;;;;;;13.52;5.65;;;;;;;;;;10609725;27;20069;-79
2022/11/08 17:00:54;;;;;;;14.05;5.45;;;;;;;;;;10594961;27;20573;-78
2022/11/08 17:05:57;;;;;;;15.73;7.43;;;;;;;;;;10600710;27;20039;-78
2022/11/08 17:10:59;;;;;;;15.93;5.60;;;;;;;;;;10604469;27;20032;-78
2022/11/08 17:16:06;;;;;;;19.02;5.40;;;;;;;;;;10608673;27;20039;-77
2022/11/08 17:21:12;;;;;;;24.30;9.63;;;;;;;;;;10608713;27;20031;-77
2022/11/08 17:26:46;;;;;;;19.25;7.75;;;;;;;;;;10596263;27;20139;-78
2022/11/08 17:31:49;;;;;;;17.25;7.63;;;;;;;;;;10622375;27;20039;-78
2022/11/08 17:36:53;;;;;;;17.63;6.22;;;;;;;;;;10618338;27;20055;-77
2022/11/08 17:41:56;;;;;;;15.77;6.45;;;;;;;;;;10614012;27;20039;-79
2022/11/08 17:46:59;;;;;;;12.73;4.15;;;;;;;;;;10613094;27;20039;-78
2022/11/08 17:52:03;;;;;;;15.65;5.32;;;;;;;;;;10585568;27;20043;-78
2022/11/08 17:57:05;;;;;;;;;;;;;;;;;;10634443;27;20099;-77
2022/11/08 18:02:08;;;;;;;8.63;3.75;;;;;;;;;;10622796;27;19965;-77
2022/11/08 18:07:13;;;;;;;10.70;4.30;;;;;;;;;;10616049;27;20423;-77
2022/11/08 18:12:16;;;;;;;8.95;3.50;;;;;;;;;;10601489;28;20038;-78
2022/11/08 18:17:21;;;;;;;3.47;1.48;;;;;;;;;;10608581;27;20039;-78
2022/11/08 18:22:25;;;;;;;10.57;4.32;;;;;;;;;;10607204;27;20033;-78
2022/11/08 18:27:28;;;;;;;9.18;3.47;;;;;;;;;;10608493;28;20042;-79
2022/11/08 18:32:30;;;;;;;9.68;3.75;;;;;;;;;;10606977;28;20031;-77
2022/11/08 18:37:36;;;;;;;8.25;3.80;;;;;;;;;;10618969;27;20043;-77
2022/11/08 18:42:42;;;;;;;9.20;3.53;;;;;;;;;;10582215;28;20039;-78
2022/11/08 18:47:49;;;;;;;8.73;3.75;;;;;;;;;;10610669;27;20044;-79
2022/11/08 18:52:53;;;;;;;9.45;3.70;;;;;;;;;;10633241;27;20046;-79
2022/11/08 18:58:02;;;;;;;8.73;4.05;;;;;;;;;;10619666;27;20069;-78
2022/11/08 19:03:05;;;;;;;9.18;3.47;;;;;;;;;;10593942;27;20091;-77
2022/11/08 19:08:08;;;;;;;10.02;4.05;;;;;;;;;;10610935;27;20035;-77
2022/11/08 19:13:15;;;;;;;13.77;4.30;;;;;;;;;;10611838;27;20039;-77
2022/11/08 19:18:25;;;;;;;16.23;5.13;;;;;;;;;;10620199;27;20139;-75
2022/11/08 19:23:40;;;;;;;12.73;3.50;;;;;;;;;;10610936;27;20035;-75
2022/11/08 19:34:15;;;;;;;11.93;4.63;;;;;;;;;;10615757;27;20788;-76
2022/11/08 19:39:28;;;;;;;7.72;3.47;;;;;;;;;;10629772;27;20046;-75
2022/11/08 19:45:02;;;;;;;6.60;3.17;;;;;;;;;;10633133;27;20042;-76
2022/11/08 19:50:11;;;;;;;12.60;6.03;;;;;;;;;;10633775;27;20158;-75
2022/11/08 19:55:39;;;;;;;12.20;3.72;;;;;;;;;;10606067;27;20039;-75
2022/11/08 20:00:48;;;;;;;8.80;3.65;;;;;;;;;;10616955;27;20046;-75
2022/11/08 20:11:27;;;;;;;6.65;2.25;;;;;;;;;;10592657;27;20038;-75
2022/11/08 20:16:36;;;;;;;6.10;2.83;;;;;;;;;;10589357;27;20038;-76
2022/11/08 20:21:48;;;;;;;6.68;2.40;;;;;;;;;;10580449;27;20056;-75
2022/11/08 20:27:00;;;;;;;6.90;2.88;;;;;;;;;;10578771;27;20560;-76
2022/11/08 20:32:16;;;;;;;8.57;3.17;;;;;;;;;;10592644;27;20081;-75
2022/11/08 20:37:33;;;;;;;9.35;2.72;;;;;;;;;;10584934;27;20138;-77
2022/11/08 20:43:03;;;;;;;7.03;2.95;;;;;;;;;;10599198;27;20064;-77
2022/11/08 20:48:28;;;;;;;10.00;2.97;;;;;;;;;;10600151;27;20051;-77
2022/11/08 20:53:34;;;;;;;11.68;3.58;;;;;;;;;;10559623;27;20046;-77
2022/11/08 20:58:50;;;;;;;8.38;4.13;;;;;;;;;;10558498;27;20472;-78
2022/11/08 21:03:59;;;;;;;10.60;3.25;;;;;;;;;;10587949;27;20032;-76
2022/11/08 21:09:15;;;;;;;7.18;3.15;;;;;;;;;;10587157;27;20047;-77
2022/11/08 21:14:44;;;;;;;11.23;3.60;;;;;;;;;;10558033;27;20047;-75
2022/11/08 21:20:03;;;;;;;8.68;4.10;;;;;;;;;;10574904;27;20080;-76
2022/11/08 21:25:19;;;;;;;3.13;1.90;;;;;;;;;;10570680;27;20043;-76
2022/11/08 21:30:23;;;;;;;;;;;;;;;;;;10570261;27;20164;-76
2022/11/08 21:35:31;;;;;;;6.80;2.80;;;;;;;;;;10553133;27;19927;-76
2022/11/08 21:40:40;;;;;;;6.00;3.20;;;;;;;;;;10553249;27;20059;-77
2022/11/08 21:45:49;;;;;;;11.57;3.67;;;;;;;;;;10568047;27;20047;-75
2022/11/08 21:51:05;;;;;;;6.50;3.10;;;;;;;;;;10566320;27;20089;-78
2022/11/08 21:56:19;;;;;;;;;;;;;;;;;;10565264;27;20181;-75
2022/11/08 22:01:39;;;;;;;3.63;1.45;;;;;;;;;;10567535;28;20418;-76
2022/11/08 22:06:55;;;;;;;7.07;3.25;;;;;;;;;;10587838;27;20047;-76
2022/11/08 22:12:04;;;;;;;7.90;2.70;;;;;;;;;;10569674;28;20460;-76
2022/11/08 22:17:08;;;;;;;4.07;1.88;;;;;;;;;;10566861;28;20050;-76
2022/11/08 22:22:16;;;;;;;6.57;2.35;;;;;;;;;;10575099;27;20084;-76
2022/11/08 22:27:19;;;;;;;5.53;2.00;;;;;;;;;;10562359;27;20495;-76
2022/11/08 22:32:23;;;;;;;5.63;2.53;;;;;;;;;;10576666;27;20063;-76
2022/11/08 22:37:32;;;;;;;5.28;2.22;;;;;;;;;;10566438;27;22411;-75
2022/11/08 22:42:37;;;;;;;5.85;3.03;;;;;;;;;;10576884;27;20050;-76
2022/11/08 22:47:44;;;;;;;6.15;2.42;;;;;;;;;;10576256;27;20055;-76
2022/11/08 22:53:02;;;;;;;3.75;2.10;;;;;;;;;;10566005;27;20455;-74
2022/11/08 22:58:13;;;;;;;3.72;1.48;;;;;;;;;;10557638;27;20059;-74
2022/11/08 23:03:22;;;;;;;4.60;2.15;;;;;;;;;;10581311;27;20725;-74
2022/11/08 23:08:35;;;;;;;4.45;1.90;;;;;;;;;;10564854;27;20063;-74
2022/11/08 23:24:51;;;;;;;6.20;2.40;;;;;;;;;;10458232;27;20396;-76
2022/11/08 23:35:17;;;;;;;4.25;1.98;;;;;;;;;;10578874;27;20050;-76
2022/11/08 23:45:56;;;;;;;4.10;1.90;;;;;;;;;;10573335;27;20047;-76
2022/11/08 23:51:03;;;;;;;2.58;1.42;;;;;;;;;;10573695;27;20140;-76
2022/11/08 23:56:19;;;;;;;2.83;1.63;;;;;;;;;;10578348;27;20049;-75
